Time;durP1;ratioP1;P1;durP2;ratioP2;P2;SDS_P1;SDS_P2;PMS_P1;PMS_P2;Temp;Humidity;BMP_temperature;BMP_pressure;BME280_temperature;BME280_humidity;BME280_pressure;Samples;Min_cycle;Max_cycle;Signal;HPM_P1;HPM_P2
2023/07/04 00:01:48;;;;;;;6.47;1.90;;;13.30;99.90;;;;;;5079472;28;20120;-73
2023/07/04 00:04:20;;;;;;;5.40;1.65;;;13.30;99.90;;;;;;5094727;28;20190;-73
2023/07/04 00:06:50;;;;;;;6.70;2.08;;;13.20;99.90;;;;;;5099434;28;20052;-73
2023/07/04 00:09:17;;;;;;;6.70;2.00;;;13.10;99.90;;;;;;5099772;28;20493;-73
2023/07/04 00:11:42;;;;;;;7.00;2.53;;;13.00;99.90;;;;;;5031006;28;20049;-73
2023/07/04 00:14:09;;;;;;;10.68;2.38;;;12.90;99.90;;;;;;5099104;28;20048;-73
2023/07/04 00:16:35;;;;;;;4.97;2.20;;;12.90;99.90;;;;;;5099318;28;20061;-73
2023/07/04 00:19:03;;;;;;;12.60;2.83;;;12.90;99.90;;;;;;5099368;28;20044;-73
2023/07/04 00:21:30;;;;;;;8.80;2.00;;;12.90;99.90;;;;;;5099315;28;20427;-73
2023/07/04 00:23:55;;;;;;;9.55;2.45;;;12.80;99.90;;;;;;5099128;28;20038;-72
2023/07/04 00:26:25;;;;;;;9.43;3.00;;;12.70;99.90;;;;;;5030978;28;20113;-73
2023/07/04 00:28:51;;;;;;;9.85;2.30;;;12.80;99.90;;;;;;5098779;28;20053;-72
2023/07/04 00:31:19;;;;;;;11.45;2.70;;;12.80;99.90;;;;;;5099072;28;20037;-73
2023/07/04 00:33:46;;;;;;;16.58;3.03;;;12.80;99.90;;;;;;5098877;28;20050;-72
2023/07/04 00:36:16;;;;;;;9.25;2.60;;;12.80;99.90;;;;;;5099162;28;20114;-73
2023/07/04 00:38:42;;;;;;;10.80;2.72;;;12.70;99.90;;;;;;5099703;28;20120;-73
2023/07/04 00:41:14;;;;;;;8.70;2.53;;;12.70;99.90;;;;;;5098867;28;20088;-72
2023/07/04 00:43:59;;;;;;;11.52;2.78;;;12.70;99.90;;;;;;5098918;28;20093;-73
2023/07/04 00:46:37;;;;;;;7.53;2.70;;;12.70;99.90;;;;;;5099246;28;20090;-73
2023/07/04 00:49:17;;;;;;;9.30;2.40;;;12.60;99.90;;;;;;5030730;28;20067;-73
2023/07/04 00:51:50;;;;;;;11.43;2.85;;;12.60;99.90;;;;;;5099184;28;20037;-72
2023/07/04 00:54:19;;;;;;;7.47;3.10;;;12.60;99.90;;;;;;5098791;28;20042;-73
2023/07/04 00:56:44;;;;;;;9.00;2.72;;;12.60;99.90;;;;;;5098730;28;20501;-73
2023/07/04 00:59:10;;;;;;;9.00;3.35;;;12.60;99.90;;;;;;5098727;28;20049;-73
2023/07/04 01:01:36;;;;;;;12.75;3.28;;;12.60;99.90;;;;;;5098899;28;20046;-72
2023/07/04 01:04:04;;;;;;;7.38;2.97;;;12.50;99.90;;;;;;5098980;28;20049;-72
2023/07/04 01:06:52;;;;;;;9.50;2.92;;;12.50;99.90;;;;;;5030411;28;20045;-73
2023/07/04 01:09:20;;;;;;;9.25;3.05;;;12.50;99.90;;;;;;5099034;28;20061;-72
2023/07/04 01:11:48;;;;;;;7.10;3.00;;;12.60;99.90;;;;;;5032724;28;20056;-73
2023/07/04 01:14:20;;;;;;;9.20;2.83;;;12.60;99.90;;;;;;5034035;28;20087;-73
2023/07/04 01:16:46;;;;;;;9.55;3.03;;;12.60;99.90;;;;;;5034138;28;20054;-73
2023/07/04 01:19:16;;;;;;;7.95;3.10;;;12.60;99.90;;;;;;5102513;28;20037;-73
2023/07/04 01:21:45;;;;;;;9.00;3.17;;;12.60;99.90;;;;;;5102531;28;20054;-73
2023/07/04 01:24:29;;;;;;;11.70;3.67;;;12.60;99.90;;;;;;5102443;28;20085;-73
2023/07/04 01:26:56;;;;;;;10.23;4.22;;;12.60;99.90;;;;;;5102274;28;20129;-73
2023/07/04 01:29:22;;;;;;;9.43;3.58;;;12.70;99.90;;;;;;5033995;28;20049;-73
2023/07/04 01:31:48;;;;;;;10.48;3.40;;;12.70;99.90;;;;;;5033744;28;20046;-73
2023/07/04 01:34:17;;;;;;;11.18;3.40;;;12.80;99.90;;;;;;5033493;28;20093;-73
2023/07/04 01:36:42;;;;;;;15.48;4.03;;;12.80;99.90;;;;;;5102250;28;20050;-73
2023/07/04 01:39:15;;;;;;;15.85;2.80;;;12.80;99.90;;;;;;5033399;28;20054;-73
2023/07/04 01:41:45;;;;;;;18.95;3.28;;;12.70;99.90;;;;;;5033481;28;20046;-72
2023/07/04 01:44:13;;;;;;;16.45;2.90;;;12.70;99.90;;;;;;5102437;28;20060;-73
2023/07/04 01:46:38;;;;;;;15.85;2.80;;;12.60;99.90;;;;;;5101862;28;20098;-72
2023/07/04 01:49:05;;;;;;;10.43;2.60;;;12.60;99.90;;;;;;5033284;28;20037;-73
2023/07/04 01:51:34;;;;;;;8.43;2.20;;;12.60;99.90;;;;;;5101929;28;20435;-73
2023/07/04 01:54:01;;;;;;;11.75;2.28;;;12.60;99.90;;;;;;5101878;28;20053;-73
2023/07/04 01:56:29;;;;;;;10.82;2.47;;;12.60;99.90;;;;;;5032852;28;20054;-73
2023/07/04 01:58:55;;;;;;;8.50;2.30;;;12.70;99.90;;;;;;5101675;28;20132;-73
2023/07/04 02:01:22;;;;;;;8.75;2.20;;;12.70;99.90;;;;;;5033073;28;20037;-72
2023/07/04 02:03:47;;;;;;;11.63;2.50;;;12.70;99.90;;;;;;5032848;28;20515;-73
2023/07/04 02:06:15;;;;;;;9.32;3.65;;;12.80;99.90;;;;;;5101488;28;20079;-73
2023/07/04 02:08:40;;;;;;;12.73;2.97;;;12.80;99.90;;;;;;5101496;28;20104;-73
2023/07/04 02:11:06;;;;;;;10.00;2.45;;;12.80;99.90;;;;;;5101606;28;20073;-73
2023/07/04 02:13:32;;;;;;;11.02;2.30;;;12.90;99.90;;;;;;5101912;28;20197;-73
2023/07/04 02:15:58;;;;;;;13.25;2.75;;;12.90;99.90;;;;;;5101564;28;20100;-73
2023/07/04 02:18:24;;;;;;;8.38;2.40;;;12.90;99.90;;;;;;5032974;28;20053;-73
2023/07/04 02:20:50;;;;;;;11.75;2.85;;;12.90;99.90;;;;;;5032643;28;20388;-73
2023/07/04 02:23:15;;;;;;;14.57;3.33;;;12.90;99.90;;;;;;5100572;28;20504;-73
2023/07/04 02:25:42;;;;;;;8.35;3.13;;;12.90;99.90;;;;;;5101206;28;20125;-72
2023/07/04 02:28:08;;;;;;;15.18;2.85;;;12.90;99.90;;;;;;5101255;28;20049;-73
2023/07/04 02:30:34;;;;;;;15.95;2.97;;;12.80;99.90;;;;;;5101108;28;20041;-72
2023/07/04 02:32:59;;;;;;;13.27;2.85;;;12.80;99.90;;;;;;5101200;28;20056;-72
2023/07/04 02:35:25;;;;;;;13.00;2.80;;;12.80;99.90;;;;;;5101204;28;20077;-73
2023/07/04 02:37:51;;;;;;;8.05;2.53;;;12.80;99.90;;;;;;5032789;28;20049;-73
2023/07/04 02:40:16;;;;;;;9.30;2.63;;;12.80;99.90;;;;;;5101115;28;20512;-74
2023/07/04 02:42:42;;;;;;;12.88;2.97;;;12.70;99.90;;;;;;5032645;28;20052;-72
2023/07/04 02:45:08;;;;;;;12.77;2.80;;;12.70;99.90;;;;;;5100626;28;20094;-72
2023/07/04 02:47:34;;;;;;;10.90;2.83;;;12.70;99.90;;;;;;5032690;28;20098;-72
2023/07/04 02:50:00;;;;;;;12.25;3.10;;;12.70;99.90;;;;;;5032486;28;20037;-73
2023/07/04 02:52:26;;;;;;;10.65;3.10;;;12.70;99.90;;;;;;5032562;28;20041;-72
2023/07/04 02:54:54;;;;;;;9.30;3.20;;;12.70;99.90;;;;;;5101209;28;20034;-73
2023/07/04 02:57:22;;;;;;;9.82;2.63;;;12.70;99.90;;;;;;5100557;28;20050;-73
2023/07/04 02:59:48;;;;;;;11.57;3.45;;;12.70;99.90;;;;;;5100817;28;20057;-72
2023/07/04 03:02:13;;;;;;;6.43;3.00;;;12.70;99.90;;;;;;5032034;28;20380;-73
2023/07/04 03:04:39;;;;;;;13.68;3.30;;;12.80;99.90;;;;;;5100467;28;20037;-72
2023/07/04 03:07:05;;;;;;;9.50;3.13;;;12.80;99.90;;;;;;5100515;28;20200;-72
2023/07/04 03:09:31;;;;;;;8.88;2.78;;;12.80;99.90;;;;;;5031872;28;20434;-72
2023/07/04 03:11:57;;;;;;;10.38;2.90;;;12.80;99.90;;;;;;5099934;28;20491;-72
2023/07/04 03:14:24;;;;;;;11.85;2.92;;;12.80;99.90;;;;;;5099100;28;20564;-72
2023/07/04 03:16:50;;;;;;;9.77;2.40;;;12.80;99.90;;;;;;5100167;28;20122;-72
2023/07/04 03:19:15;;;;;;;8.65;2.90;;;12.80;99.90;;;;;;5100281;28;20090;-72
2023/07/04 03:21:41;;;;;;;11.75;2.67;;;12.80;99.90;;;;;;5031915;28;20503;-72
2023/07/04 03:24:07;;;;;;;11.57;2.80;;;12.80;99.90;;;;;;5031637;28;20049;-72
2023/07/04 03:26:34;;;;;;;14.85;2.75;;;12.80;99.90;;;;;;5100024;28;20045;-72
2023/07/04 03:29:03;;;;;;;6.43;2.67;;;12.80;99.90;;;;;;5099801;28;20056;-72
2023/07/04 03:31:28;;;;;;;7.60;2.20;;;12.80;99.90;;;;;;5099920;28;20038;-72
2023/07/04 03:33:54;;;;;;;6.28;2.22;;;12.80;99.90;;;;;;5031458;28;20046;-72
2023/07/04 03:36:20;;;;;;;7.30;2.60;;;12.80;99.90;;;;;;5031548;28;20080;-72
2023/07/04 03:38:46;;;;;;;9.63;2.70;;;12.80;99.90;;;;;;5099544;28;20130;-72
2023/07/04 03:41:12;;;;;;;8.50;2.22;;;12.80;99.90;;;;;;5099503;28;20132;-72
2023/07/04 03:43:38;;;;;;;8.48;2.45;;;12.70;99.90;;;;;;5099559;28;20113;-72
2023/07/04 03:46:05;;;;;;;6.97;2.22;;;12.70;99.90;;;;;;5031509;28;20129;-72
2023/07/04 03:48:31;;;;;;;10.50;2.55;;;12.70;99.90;;;;;;5099351;28;20136;-72
2023/07/04 03:50:56;;;;;;;7.05;2.17;;;12.70;99.90;;;;;;5099507;28;20057;-74
2023/07/04 03:53:22;;;;;;;5.78;2.13;;;12.60;99.90;;;;;;5031352;28;20041;-72
2023/07/04 03:55:49;;;;;;;7.00;2.53;;;12.70;99.90;;;;;;5099315;28;20041;-72
2023/07/04 03:58:17;;;;;;;5.88;2.20;;;12.60;99.90;;;;;;5099520;28;20065;-72
2023/07/04 04:00:49;;;;;;;7.20;1.90;;;12.70;99.90;;;;;;5099462;28;20089;-72
2023/07/04 04:03:18;;;;;;;8.30;2.10;;;12.60;99.90;;;;;;5099497;28;20053;-72
2023/07/04 04:05:44;;;;;;;6.93;1.60;;;12.60;99.90;;;;;;5099374;28;20104;-72
2023/07/04 04:08:09;;;;;;;8.00;1.67;;;12.60;99.90;;;;;;5099152;28;20136;-72
2023/07/04 04:10:35;;;;;;;6.07;1.63;;;12.70;99.90;;;;;;5099235;28;20041;-72
2023/07/04 04:13:01;;;;;;;12.35;2.17;;;12.70;99.90;;;;;;5031301;28;20053;-72
2023/07/04 04:15:27;;;;;;;8.45;1.52;;;12.70;99.90;;;;;;5099396;28;20037;-72
2023/07/04 04:17:54;;;;;;;7.88;1.85;;;12.80;99.90;;;;;;5030700;28;20102;-72
2023/07/04 04:20:19;;;;;;;7.78;1.67;;;12.90;99.90;;;;;;5099038;28;20041;-72
2023/07/04 04:22:47;;;;;;;5.40;1.52;;;12.90;99.90;;;;;;5098975;28;20045;-72
2023/07/04 04:25:14;;;;;;;9.50;1.83;;;12.90;99.90;;;;;;5030692;28;20045;-72
2023/07/04 04:27:40;;;;;;;6.00;1.85;;;13.00;99.90;;;;;;5098816;28;20041;-72
2023/07/04 04:30:10;;;;;;;11.23;2.25;;;13.00;99.90;;;;;;5098977;28;20045;-73
2023/07/04 04:32:37;;;;;;;9.15;1.80;;;13.10;99.90;;;;;;5099151;28;20053;-72
2023/07/04 04:35:04;;;;;;;6.80;1.90;;;13.10;99.90;;;;;;5030571;28;20120;-72
2023/07/04 04:37:31;;;;;;;10.60;2.10;;;13.20;99.90;;;;;;5030563;28;20060;-72
2023/07/04 04:39:56;;;;;;;12.68;2.47;;;13.30;99.90;;;;;;5098898;28;20049;-72
2023/07/04 04:42:23;;;;;;;3.70;1.35;;;13.40;99.90;;;;;;5030541;28;20045;-72
2023/07/04 04:44:53;;;;;;;8.80;1.90;;;13.50;99.90;;;;;;5099538;28;20120;-72
2023/07/04 04:47:25;;;;;;;7.00;1.77;;;13.50;99.90;;;;;;5105402;28;20110;-72
2023/07/04 04:49:52;;;;;;;6.90;1.70;;;13.60;99.90;;;;;;5037086;28;20511;-72
2023/07/04 04:52:23;;;;;;;4.25;1.70;;;13.70;99.90;;;;;;5105336;28;20045;-72
2023/07/04 04:54:49;;;;;;;7.35;1.63;;;13.80;99.90;;;;;;5105328;28;20136;-72
2023/07/04 04:57:15;;;;;;;6.65;1.98;;;13.90;99.90;;;;;;5105064;28;20144;-72
2023/07/04 04:59:41;;;;;;;6.90;1.63;;;14.00;99.90;;;;;;5105182;28;20057;-72
2023/07/04 05:02:09;;;;;;;7.28;1.65;;;14.00;99.90;;;;;;5105125;28;20038;-72
2023/07/04 05:04:34;;;;;;;5.45;2.05;;;14.00;99.90;;;;;;5105232;28;20050;-72
2023/07/04 05:07:00;;;;;;;6.30;1.80;;;14.00;99.90;;;;;;5036768;27;20049;-72
2023/07/04 05:09:27;;;;;;;7.22;1.60;;;14.00;99.90;;;;;;5036975;27;20045;-72
2023/07/04 05:11:52;;;;;;;5.05;1.73;;;14.10;99.90;;;;;;5105457;28;20510;-72
2023/07/04 05:14:18;;;;;;;6.68;1.95;;;14.20;99.90;;;;;;5105285;28;20125;-72
2023/07/04 05:16:43;;;;;;;5.75;1.67;;;14.20;99.90;;;;;;5105147;28;20051;-72
2023/07/04 05:19:09;;;;;;;5.15;1.55;;;14.30;99.90;;;;;;5036711;27;20033;-72
2023/07/04 05:21:35;;;;;;;5.45;1.65;;;14.30;99.90;;;;;;5036623;27;20068;-72
2023/07/04 05:24:00;;;;;;;7.15;1.67;;;14.30;99.90;;;;;;5105006;28;20097;-72
2023/07/04 05:26:28;;;;;;;8.43;1.67;;;14.50;99.90;;;;;;5036714;28;20045;-72
2023/07/04 05:28:56;;;;;;;7.80;2.10;;;14.50;99.90;;;;;;5105320;28;20061;-72
2023/07/04 05:31:25;;;;;;;5.72;1.50;;;14.60;99.90;;;;;;5036373;28;20061;-73
2023/07/04 05:33:57;;;;;;;6.32;1.60;;;14.50;99.90;;;;;;5036463;28;20477;-73
2023/07/04 05:36:26;;;;;;;5.78;1.55;;;14.60;99.90;;;;;;5105224;28;20064;-73
2023/07/04 05:38:53;;;;;;;9.35;1.95;;;14.70;99.90;;;;;;5105233;28;20049;-73
2023/07/04 05:41:22;;;;;;;5.72;1.80;;;14.80;99.90;;;;;;5104984;28;20037;-73
2023/07/04 05:43:48;;;;;;;7.70;1.70;;;15.00;99.90;;;;;;5104974;28;20420;-72
2023/07/04 05:46:16;;;;;;;11.35;2.20;;;15.20;99.90;;;;;;5036522;28;20037;-73
2023/07/04 05:48:42;;;;;;;7.10;1.80;;;15.40;99.90;;;;;;5104879;28;20057;-73
2023/07/04 05:51:11;;;;;;;5.97;1.73;;;15.50;99.90;;;;;;5104867;28;20044;-74
2023/07/04 05:53:38;;;;;;;9.35;1.90;;;15.50;99.90;;;;;;5105069;28;20056;-72
2023/07/04 05:56:08;;;;;;;5.93;1.83;;;15.70;99.90;;;;;;5104505;28;20076;-74
2023/07/04 05:58:37;;;;;;;6.53;1.92;;;15.80;99.90;;;;;;5101907;28;20076;-74
2023/07/04 06:01:07;;;;;;;11.90;1.80;;;15.90;99.90;;;;;;5101384;28;20053;-74
2023/07/04 06:03:34;;;;;;;7.72;1.90;;;16.10;99.90;;;;;;5101740;28;20046;-74
2023/07/04 06:06:04;;;;;;;9.10;1.67;;;16.20;99.90;;;;;;5101483;28;20049;-73
2023/07/04 06:08:31;;;;;;;6.50;1.90;;;16.40;99.90;;;;;;5101534;28;20049;-74
2023/07/04 06:10:58;;;;;;;7.68;1.48;;;16.50;99.90;;;;;;5101757;28;20048;-74
2023/07/04 06:13:23;;;;;;;13.00;1.90;;;16.70;99.90;;;;;;5101584;28;20389;-74
2023/07/04 06:15:49;;;;;;;6.10;1.30;;;16.80;99.90;;;;;;5101507;28;20046;-73
2023/07/04 06:18:15;;;;;;;13.38;1.50;;;16.90;99.90;;;;;;5101214;28;20049;-75
2023/07/04 06:20:40;;;;;;;6.05;1.20;;;17.10;99.90;;;;;;5025724;28;20125;-73
2023/07/04 06:23:06;;;;;;;6.72;1.60;;;17.20;99.90;;;;;;5082194;28;20053;-73
2023/07/04 06:25:33;;;;;;;7.22;1.30;;;17.30;99.90;;;;;;5080491;28;20081;-73
2023/07/04 06:28:00;;;;;;;8.05;1.45;;;17.60;99.90;;;;;;5080368;28;20455;-73
2023/07/04 06:30:29;;;;;;;8.50;1.30;;;17.60;99.90;;;;;;5080466;28;20042;-73
2023/07/04 06:32:56;;;;;;;5.30;1.50;;;17.60;99.90;;;;;;5080366;28;20486;-75
2023/07/04 06:35:21;;;;;;;6.10;1.20;;;17.70;99.90;;;;;;5080679;28;20058;-74
2023/07/04 06:37:47;;;;;;;10.45;1.33;;;17.80;99.90;;;;;;5080559;28;20120;-73
2023/07/04 06:40:13;;;;;;;6.43;1.38;;;17.80;99.90;;;;;;5080224;28;20124;-83
2023/07/04 06:42:41;;;;;;;7.57;1.13;;;17.90;99.90;;;;;;5080460;28;20060;-83
2023/07/04 06:45:07;;;;;;;8.32;1.80;;;17.90;99.90;;;;;;5080577;28;20116;-81
2023/07/04 06:47:33;;;;;;;9.18;1.65;;;18.00;99.90;;;;;;5080371;28;20046;-80
2023/07/04 06:49:58;;;;;;;8.57;1.25;;;18.10;99.90;;;;;;5080240;28;20042;-72
2023/07/04 06:52:24;;;;;;;7.85;1.40;;;17.90;99.90;;;;;;5080550;28;20038;-72
2023/07/04 06:54:51;;;;;;;6.18;1.70;;;17.50;99.90;;;;;;5080256;28;20058;-73
2023/07/04 06:57:17;;;;;;;6.38;1.50;;;17.40;99.90;;;;;;5011892;28;20409;-72
2023/07/04 06:59:45;;;;;;;8.50;1.95;;;17.50;99.90;;;;;;5079927;28;20122;-71
2023/07/04 07:02:12;;;;;;;7.72;1.27;;;17.40;99.90;;;;;;5079999;28;20514;-73
2023/07/04 07:04:37;;;;;;;7.45;1.35;;;17.50;99.90;;;;;;5079751;28;20106;-74
2023/07/04 07:07:05;;;;;;;6.53;1.13;;;17.50;99.90;;;;;;5079794;28;20046;-74
2023/07/04 07:09:37;;;;;;;8.13;1.42;;;17.50;99.90;;;;;;5079788;28;20049;-73
2023/07/04 07:12:02;;;;;;;3.57;1.00;;;17.50;99.90;;;;;;5079696;28;20042;-73
2023/07/04 07:14:29;;;;;;;4.55;1.25;;;17.70;99.90;;;;;;5012232;28;20296;-74
2023/07/04 07:16:56;;;;;;;8.80;1.30;;;17.90;99.90;;;;;;5011922;28;20546;-73
2023/07/04 07:19:23;;;;;;;5.57;1.15;;;17.80;99.90;;;;;;5012257;28;20069;-75
2023/07/04 07:21:49;;;;;;;8.05;1.25;;;17.60;99.90;;;;;;5079674;28;20085;-74
2023/07/04 07:24:15;;;;;;;9.32;1.70;;;17.50;99.90;;;;;;5079799;28;20520;-75
2023/07/04 07:26:41;;;;;;;9.02;1.40;;;17.70;99.90;;;;;;5079715;28;20046;-74
2023/07/04 07:29:07;;;;;;;6.40;1.40;;;17.80;99.90;;;;;;5011862;28;20049;-74
2023/07/04 07:31:32;;;;;;;5.07;1.20;;;18.00;99.90;;;;;;5079377;28;20046;-73
2023/07/04 07:33:58;;;;;;;5.50;1.25;;;18.10;99.90;;;;;;5079346;28;20049;-73
2023/07/04 07:36:27;;;;;;;6.28;1.75;;;18.30;99.90;;;;;;5011876;28;20082;-73
2023/07/04 07:38:55;;;;;;;8.02;1.52;;;18.20;99.90;;;;;;5011520;28;20094;-74
2023/07/04 07:41:25;;;;;;;10.82;1.58;;;18.20;99.90;;;;;;5079492;28;20042;-74
2023/07/04 07:43:51;;;;;;;5.68;1.33;;;18.40;99.90;;;;;;5079195;28;20485;-74
2023/07/04 07:46:18;;;;;;;8.73;1.95;;;18.50;99.90;;;;;;5011588;28;20049;-74
2023/07/04 07:48:44;;;;;;;8.65;1.67;;;18.30;99.90;;;;;;5079285;28;20133;-74
2023/07/04 07:51:11;;;;;;;7.57;1.27;;;18.00;99.90;;;;;;5079639;28;20397;-73
2023/07/04 07:53:39;;;;;;;4.95;1.50;;;17.70;99.90;;;;;;5011295;28;20056;-73
2023/07/04 07:56:09;;;;;;;13.23;2.30;;;17.60;99.90;;;;;;5078930;28;20057;-74
2023/07/04 07:58:35;;;;;;;8.13;1.92;;;17.50;99.90;;;;;;5078954;28;20085;-73
2023/07/04 08:01:38;;;;;;;10.57;2.45;;;17.50;99.90;;;;;;5079258;28;20409;-73
2023/07/04 08:04:05;;;;;;;9.63;1.60;;;17.60;99.90;;;;;;5069904;28;20089;-74
2023/07/04 08:06:33;;;;;;;7.35;1.63;;;17.40;99.90;;;;;;5078925;28;20504;-74
2023/07/04 08:09:01;;;;;;;5.03;1.63;;;17.30;99.90;;;;;;5078923;28;20386;-74
2023/07/04 08:11:29;;;;;;;5.82;1.60;;;17.20;99.90;;;;;;5079343;28;20043;-74
2023/07/04 08:13:55;;;;;;;9.40;1.42;;;17.40;99.90;;;;;;5078986;28;20074;-74
2023/07/04 08:16:29;;;;;;;8.20;2.08;;;17.50;99.90;;;;;;5078924;28;20138;-74
2023/07/04 08:18:58;;;;;;;5.80;1.50;;;17.50;99.90;;;;;;5079100;28;20136;-74
2023/07/04 08:21:24;;;;;;;5.30;1.55;;;18.00;99.90;;;;;;5078262;28;20053;-74
2023/07/04 08:23:50;;;;;;;6.97;1.83;;;18.30;99.90;;;;;;5010934;28;20042;-74
2023/07/04 08:26:21;;;;;;;8.88;1.52;;;18.50;99.90;;;;;;5010932;28;20132;-73
2023/07/04 08:28:47;;;;;;;5.70;1.30;;;18.70;99.90;;;;;;5078475;28;20056;-73
2023/07/04 08:31:17;;;;;;;8.95;1.85;;;18.80;99.90;;;;;;5078652;28;20046;-73
2023/07/04 08:33:43;;;;;;;8.93;1.63;;;18.60;99.90;;;;;;5078880;28;20042;-73
2023/07/04 08:36:10;;;;;;;5.68;1.58;;;18.40;99.90;;;;;;5011303;28;20056;-74
2023/07/04 08:38:36;;;;;;;8.27;2.13;;;18.50;99.90;;;;;;5078895;28;20076;-74
2023/07/04 08:41:02;;;;;;;7.65;1.83;;;18.80;99.90;;;;;;5010982;28;20091;-74
2023/07/04 08:43:46;;;;;;;9.20;1.70;;;19.00;99.90;;;;;;5078543;28;20158;-74
2023/07/04 08:46:14;;;;;;;8.13;1.80;;;18.70;99.90;;;;;;5010789;28;20050;-74
2023/07/04 08:48:42;;;;;;;7.50;1.98;;;18.50;99.90;;;;;;5078433;28;20050;-74
2023/07/04 08:51:13;;;;;;;8.10;1.83;;;18.40;99.90;;;;;;5010979;28;20124;-73
2023/07/04 08:53:40;;;;;;;10.02;1.75;;;18.80;99.90;;;;;;5078377;28;20050;-74
2023/07/04 08:56:20;;;;;;;9.75;1.73;;;19.00;99.90;;;;;;5010486;28;20136;-74
2023/07/04 08:59:10;;;;;;;7.28;1.70;;;19.20;99.90;;;;;;5078474;28;20157;-74
2023/07/04 09:02:13;;;;;;;6.35;1.85;;;18.90;99.90;;;;;;5078368;28;20046;-74
2023/07/04 09:05:10;;;;;;;11.10;2.22;;;18.90;99.90;;;;;;5092458;28;20058;-74
2023/07/04 09:07:43;;;;;;;10.88;1.80;;;18.90;99.90;;;;;;5030303;28;20090;-74
2023/07/04 09:10:32;;;;;;;7.13;1.85;;;19.00;99.90;;;;;;5098494;28;20073;-74
2023/07/04 09:13:05;;;;;;;7.97;1.58;;;19.40;99.90;;;;;;5098649;28;20045;-74
2023/07/04 09:15:46;;;;;;;11.85;1.70;;;19.50;99.90;;;;;;5098740;28;20084;-74
2023/07/04 09:18:18;;;;;;;5.45;1.35;;;19.70;99.90;;;;;;5098635;28;20556;-74
2023/07/04 09:20:49;;;;;;;5.33;1.50;;;19.70;99.90;;;;;;5030414;28;20041;-74
2023/07/04 09:23:20;;;;;;;6.40;1.70;;;19.90;99.90;;;;;;5098792;28;20054;-74
2023/07/04 09:25:45;;;;;;;5.72;2.03;;;20.10;99.90;;;;;;5098265;28;20091;-74
2023/07/04 09:28:11;;;;;;;6.63;1.58;;;20.40;99.90;;;;;;5029898;28;20046;-74
2023/07/04 09:30:37;;;;;;;8.02;1.50;;;20.30;99.90;;;;;;5098412;28;20133;-73
2023/07/04 09:33:04;;;;;;;6.55;1.70;;;20.40;99.90;;;;;;5032960;28;20124;-73
2023/07/04 09:35:31;;;;;;;9.55;1.88;;;20.50;99.90;;;;;;5033183;28;20477;-73
2023/07/04 09:38:02;;;;;;;6.55;1.52;;;20.80;99.90;;;;;;5101721;28;20503;-74
2023/07/04 09:40:48;;;;;;;7.78;1.95;;;20.90;99.90;;;;;;5102346;28;20049;-74
2023/07/04 09:43:33;;;;;;;7.47;1.45;;;20.50;99.90;;;;;;5033090;28;20463;-73
2023/07/04 09:46:13;;;;;;;7.45;1.77;;;20.10;99.90;;;;;;5033120;28;20132;-74
2023/07/04 09:48:39;;;;;;;8.75;2.20;;;19.80;99.90;;;;;;5101957;28;20049;-74
2023/07/04 09:51:26;;;;;;;5.28;1.25;;;19.60;99.90;;;;;;5102002;28;20048;-74
2023/07/04 09:54:12;;;;;;;7.30;1.30;;;19.50;99.90;;;;;;5101601;28;20061;-74
2023/07/04 09:56:39;;;;;;;6.70;1.50;;;19.50;99.90;;;;;;5101487;28;20489;-74
2023/07/04 09:59:26;;;;;;;5.60;1.30;;;19.70;99.90;;;;;;5101758;28;20045;-73
2023/07/04 10:01:58;;;;;;;9.85;1.73;;;20.00;99.90;;;;;;5101653;28;20524;-73
2023/07/04 10:04:35;;;;;;;10.07;1.60;;;20.10;99.90;;;;;;5101465;28;20045;-73
2023/07/04 10:07:05;;;;;;;8.32;1.75;;;20.40;99.90;;;;;;5101397;28;20540;-73
2023/07/04 10:09:33;;;;;;;9.77;1.90;;;20.40;99.90;;;;;;5101682;28;20053;-73
2023/07/04 10:12:12;;;;;;;7.20;1.45;;;20.50;99.90;;;;;;5101478;28;20094;-73
2023/07/04 10:14:50;;;;;;;7.97;1.88;;;20.50;99.90;;;;;;5032802;28;20408;-74
2023/07/04 10:17:17;;;;;;;7.32;1.42;;;20.40;99.90;;;;;;5032761;28;20045;-73
2023/07/04 10:19:46;;;;;;;6.57;1.40;;;20.40;99.90;;;;;;5032618;28;20046;-73
2023/07/04 10:22:12;;;;;;;9.35;1.30;;;20.40;99.90;;;;;;5101321;28;20048;-74
2023/07/04 10:24:38;;;;;;;7.20;1.60;;;20.50;99.90;;;;;;5100910;28;20049;-73
2023/07/04 10:27:11;;;;;;;5.68;1.50;;;20.70;99.90;;;;;;5101006;28;20500;-73
2023/07/04 10:29:48;;;;;;;12.85;1.77;;;20.40;99.90;;;;;;5101516;28;20054;-73
2023/07/04 10:32:16;;;;;;;9.05;1.70;;;20.00;99.90;;;;;;5100911;28;20050;-73
2023/07/04 10:34:43;;;;;;;9.05;2.20;;;20.10;99.90;;;;;;5032397;28;20518;-73
2023/07/04 10:37:23;;;;;;;5.80;1.23;;;20.40;99.90;;;;;;5100960;28;20041;-74
2023/07/04 10:39:56;;;;;;;5.38;1.50;;;20.80;99.90;;;;;;5100834;28;20049;-74
2023/07/04 10:42:37;;;;;;;9.55;1.50;;;21.00;99.90;;;;;;5032263;28;20060;-73
2023/07/04 10:45:05;;;;;;;4.95;1.40;;;21.20;99.90;;;;;;5100395;28;20046;-73
2023/07/04 10:47:37;;;;;;;6.93;1.52;;;20.90;99.90;;;;;;5101041;28;20068;-73
2023/07/04 10:50:17;;;;;;;6.32;1.10;;;20.50;99.90;;;;;;5032619;28;20128;-73
2023/07/04 10:52:47;;;;;;;5.70;1.27;;;20.50;99.90;;;;;;5100965;28;20037;-73
2023/07/04 10:55:37;;;;;;;8.93;1.45;;;20.00;99.90;;;;;;5032472;28;20053;-74
2023/07/04 10:58:08;;;;;;;7.95;1.30;;;20.00;99.90;;;;;;5101237;28;20045;-73
2023/07/04 11:00:40;;;;;;;8.88;1.85;;;20.20;99.90;;;;;;5100773;28;20114;-73
2023/07/04 11:03:47;;;;;;;7.22;1.60;;;20.50;99.90;;;;;;5032055;28;20047;-73
2023/07/04 11:06:24;;;;;;;5.93;1.00;;;20.70;99.90;;;;;;5100013;28;20508;-73
2023/07/04 11:08:51;;;;;;;6.35;1.10;;;20.70;99.90;;;;;;5100402;28;20489;-74
2023/07/04 11:11:28;;;;;;;7.75;1.30;;;20.50;99.90;;;;;;5100366;28;20366;-74
2023/07/04 11:13:58;;;;;;;5.93;1.27;;;20.30;99.90;;;;;;5100225;28;20056;-74
2023/07/04 11:16:29;;;;;;;6.40;1.60;;;20.40;99.90;;;;;;5031823;28;20042;-74
2023/07/04 11:19:20;;;;;;;4.50;1.20;;;20.60;99.90;;;;;;5100342;28;20041;-73
2023/07/04 11:22:13;;;;;;;5.82;1.17;;;20.80;99.90;;;;;;5100242;28;20149;-73
2023/07/04 11:24:53;;;;;;;6.03;1.33;;;21.10;99.90;;;;;;5100517;28;20374;-73
2023/07/04 11:27:24;;;;;;;6.75;1.58;;;21.20;99.90;;;;;;5099699;28;20481;-74
2023/07/04 11:29:55;;;;;;;5.70;1.35;;;21.50;99.90;;;;;;5031646;28;20481;-73
2023/07/04 11:32:54;;;;;;;6.72;1.35;;;21.30;99.90;;;;;;5031611;28;20112;-74
2023/07/04 11:35:23;;;;;;;6.88;1.63;;;21.00;99.90;;;;;;5032098;28;20049;-75
2023/07/04 11:37:51;;;;;;;3.88;1.05;;;20.80;99.90;;;;;;5099893;28;20120;-73
2023/07/04 11:40:40;;;;;;;7.15;1.77;;;20.40;99.90;;;;;;5031686;28;20041;-74
2023/07/04 11:43:19;;;;;;;6.70;1.45;;;20.30;99.90;;;;;;5099731;28;20085;-90
2023/07/04 11:45:45;;;;;;;9.80;1.65;;;20.50;99.90;;;;;;5099934;28;20054;-89
2023/07/04 11:48:15;;;;;;;7.07;2.00;;;20.40;99.90;;;;;;5099884;28;20056;-73
2023/07/04 11:50:48;;;;;;;6.60;2.00;;;20.40;99.90;;;;;;5099845;28;20053;-72
2023/07/04 11:53:17;;;;;;;7.40;1.60;;;20.50;99.90;;;;;;5099754;28;20098;-74
2023/07/04 11:55:44;;;;;;;10.65;1.98;;;20.80;99.90;;;;;;5031063;28;20053;-74
2023/07/04 11:58:09;;;;;;;8.07;1.70;;;20.70;99.90;;;;;;5099549;28;20057;-74
2023/07/04 12:00:35;;;;;;;6.82;1.52;;;20.80;99.90;;;;;;5099417;28;20046;-73
2023/07/04 12:03:21;;;;;;;5.72;1.52;;;20.90;99.90;;;;;;5099559;28;20092;-74
2023/07/04 12:05:55;;;;;;;12.70;1.90;;;21.10;99.90;;;;;;5099572;28;20046;-74
2023/07/04 12:08:32;;;;;;;9.05;1.45;;;20.80;99.90;;;;;;5031218;28;20037;-73
2023/07/04 12:11:05;;;;;;;5.97;1.85;;;20.80;99.90;;;;;;5031346;28;20097;-74
2023/07/04 12:13:34;;;;;;;;;;;20.60;99.90;;;;;;5099767;28;20064;-74
2023/07/04 12:16:00;;;;;;;7.80;1.90;;;20.60;99.90;;;;;;5098968;28;19921;-74
2023/07/04 12:18:28;;;;;;;8.63;1.80;;;20.70;99.90;;;;;;5099262;28;20041;-75
2023/07/04 12:20:59;;;;;;;7.10;1.50;;;20.60;99.90;;;;;;5099381;28;20042;-73
2023/07/04 12:23:25;;;;;;;5.68;1.80;;;20.80;99.90;;;;;;5031110;28;20048;-74
2023/07/04 12:25:54;;;;;;;10.30;1.90;;;21.00;99.90;;;;;;5099010;28;20042;-73
2023/07/04 12:28:28;;;;;;;5.10;1.48;;;21.20;99.90;;;;;;5030751;28;20113;-73
2023/07/04 12:30:58;;;;;;;7.18;1.70;;;21.10;99.90;;;;;;5099969;28;20064;-74
2023/07/04 12:33:25;;;;;;;9.75;2.08;;;20.80;99.90;;;;;;5030539;28;20587;-73
2023/07/04 12:35:56;;;;;;;8.32;1.40;;;20.90;99.90;;;;;;5030817;28;20044;-74
2023/07/04 12:38:23;;;;;;;7.28;1.55;;;20.70;99.90;;;;;;5030974;28;20094;-74
2023/07/04 12:40:49;;;;;;;10.95;2.67;;;20.70;99.90;;;;;;5099055;28;20045;-74
2023/07/04 12:43:16;;;;;;;5.00;1.27;;;20.90;99.90;;;;;;5030471;28;20038;-74
2023/07/04 12:45:42;;;;;;;10.25;2.20;;;21.10;99.90;;;;;;5099225;28;20129;-74
2023/07/04 12:48:13;;;;;;;9.25;2.08;;;21.00;99.90;;;;;;5030539;28;20045;-75
2023/07/04 12:50:47;;;;;;;6.00;1.60;;;21.10;99.90;;;;;;5099014;28;20045;-74
2023/07/04 12:53:14;;;;;;;6.60;2.15;;;21.10;99.90;;;;;;5098827;28;20046;-73
2023/07/04 12:55:41;;;;;;;8.13;1.83;;;20.80;99.90;;;;;;5030191;28;20132;-75
2023/07/04 12:58:13;;;;;;;6.22;1.63;;;20.80;99.90;;;;;;5099077;28;20105;-74